sensor_id;sensor_type;location;lat;lon;timestamp;pressure;altitude;pressure_sealevel;temperature;humidity
79705;BME280;69940;53.120;8.764;2024-03-17T00:01:04;102448.00;;;7.48;75.64
79705;BME280;69940;53.120;8.764;2024-03-17T00:03:28;102448.00;;;7.46;75.75
79705;BME280;69940;53.120;8.764;2024-03-17T00:05:58;102449.00;;;7.45;75.82
79705;BME280;69940;53.120;8.764;2024-03-17T00:08:28;102450.00;;;7.44;75.77
79705;BME280;69940;53.120;8.764;2024-03-17T00:10:58;102450.00;;;7.41;75.97
79705;BME280;69940;53.120;8.764;2024-03-17T00:13:27;102452.00;;;7.38;76.17
79705;BME280;69940;53.120;8.764;2024-03-17T00:15:58;102452.00;;;7.34;76.37
79705;BME280;69940;53.120;8.764;2024-03-17T00:18:28;102452.00;;;7.31;76.35
79705;BME280;69940;53.120;8.764;2024-03-17T00:20:57;102454.00;;;7.30;76.37
79705;BME280;69940;53.120;8.764;2024-03-17T00:23:28;102456.00;;;7.28;76.47
79705;BME280;69940;53.120;8.764;2024-03-17T00:25:58;102457.00;;;7.27;76.41
79705;BME280;69940;53.120;8.764;2024-03-17T00:28:27;102459.00;;;7.28;76.39
79705;BME280;69940;53.120;8.764;2024-03-17T00:30:58;102460.00;;;7.27;76.32
79705;BME280;69940;53.120;8.764;2024-03-17T00:33:29;102460.00;;;7.25;76.52
79705;BME280;69940;53.120;8.764;2024-03-17T00:35:59;102460.00;;;7.25;76.44
79705;BME280;69940;53.120;8.764;2024-03-17T00:38:28;102461.00;;;7.23;76.42
79705;BME280;69940;53.120;8.764;2024-03-17T00:40:58;102461.00;;;7.22;76.50
79705;BME280;69940;53.120;8.764;2024-03-17T00:43:28;102462.00;;;7.20;76.57
79705;BME280;69940;53.120;8.764;2024-03-17T00:45:59;102461.00;;;7.16;76.68
79705;BME280;69940;53.120;8.764;2024-03-17T00:48:28;102461.00;;;7.13;76.88
79705;BME280;69940;53.120;8.764;2024-03-17T00:50:58;102461.00;;;7.10;76.91
79705;BME280;69940;53.120;8.764;2024-03-17T00:53:28;102460.00;;;7.07;76.97
79705;BME280;69940;53.120;8.764;2024-03-17T00:56:03;102458.00;;;7.06;77.01
79705;BME280;69940;53.120;8.764;2024-03-17T00:58:27;102457.00;;;7.05;76.87
79705;BME280;69940;53.120;8.764;2024-03-17T01:00:57;102458.00;;;7.07;76.77
79705;BME280;69940;53.120;8.764;2024-03-17T01:03:28;102459.00;;;7.09;76.61
79705;BME280;69940;53.120;8.764;2024-03-17T01:05:57;102458.00;;;7.11;76.55
79705;BME280;69940;53.120;8.764;2024-03-17T01:08:28;102457.00;;;7.12;76.56
79705;BME280;69940;53.120;8.764;2024-03-17T01:10:59;102456.00;;;7.11;76.67
79705;BME280;69940;53.120;8.764;2024-03-17T01:13:28;102455.00;;;7.11;76.67
79705;BME280;69940;53.120;8.764;2024-03-17T01:15:57;102454.00;;;7.08;76.64
79705;BME280;69940;53.120;8.764;2024-03-17T01:18:28;102452.00;;;7.05;76.76
79705;BME280;69940;53.120;8.764;2024-03-17T01:20:58;102450.00;;;7.01;76.94
79705;BME280;69940;53.120;8.764;2024-03-17T01:23:28;102448.00;;;6.96;77.30
79705;BME280;69940;53.120;8.764;2024-03-17T01:25:57;102447.00;;;6.92;77.31
79705;BME280;69940;53.120;8.764;2024-03-17T01:28:28;102447.00;;;6.90;77.42
79705;BME280;69940;53.120;8.764;2024-03-17T01:30:58;102448.00;;;6.90;77.16
79705;BME280;69940;53.120;8.764;2024-03-17T01:33:28;102448.00;;;6.90;77.13
79705;BME280;69940;53.120;8.764;2024-03-17T01:35:58;102446.00;;;6.90;77.11
79705;BME280;69940;53.120;8.764;2024-03-17T01:38:27;102444.00;;;6.91;77.04
79705;BME280;69940;53.120;8.764;2024-03-17T01:40:58;102442.00;;;6.92;77.01
79705;BME280;69940;53.120;8.764;2024-03-17T01:43:28;102441.00;;;6.92;76.99
79705;BME280;69940;53.120;8.764;2024-03-17T01:45:59;102440.00;;;6.92;76.88
79705;BME280;69940;53.120;8.764;2024-03-17T01:48:28;102438.00;;;6.91;77.07
79705;BME280;69940;53.120;8.764;2024-03-17T01:50:58;102436.00;;;6.90;77.08
79705;BME280;69940;53.120;8.764;2024-03-17T01:53:28;102436.00;;;6.89;77.22
79705;BME280;69940;53.120;8.764;2024-03-17T01:55:59;102436.00;;;6.87;77.18
79705;BME280;69940;53.120;8.764;2024-03-17T01:58:30;102436.00;;;6.85;77.24
79705;BME280;69940;53.120;8.764;2024-03-17T02:00:58;102435.00;;;6.81;77.44
79705;BME280;69940;53.120;8.764;2024-03-17T02:03:27;102435.00;;;6.76;77.54
79705;BME280;69940;53.120;8.764;2024-03-17T02:05:58;102435.00;;;6.71;77.86
79705;BME280;69940;53.120;8.764;2024-03-17T02:08:28;102435.00;;;6.69;77.78
79705;BME280;69940;53.120;8.764;2024-03-17T02:10:57;102435.00;;;6.65;77.77
79705;BME280;69940;53.120;8.764;2024-03-17T02:13:28;102435.00;;;6.62;77.90
79705;BME280;69940;53.120;8.764;2024-03-17T02:15:58;102435.00;;;6.60;77.89
79705;BME280;69940;53.120;8.764;2024-03-17T02:18:27;102434.00;;;6.59;77.84
79705;BME280;69940;53.120;8.764;2024-03-17T02:21:00;102435.00;;;6.57;77.86
79705;BME280;69940;53.120;8.764;2024-03-17T02:23:27;102435.00;;;6.56;77.92
79705;BME280;69940;53.120;8.764;2024-03-17T02:25:58;102435.00;;;6.56;77.81
79705;BME280;69940;53.120;8.764;2024-03-17T02:28:28;102435.00;;;6.56;77.89
79705;BME280;69940;53.120;8.764;2024-03-17T02:30:57;102435.00;;;6.54;77.94
79705;BME280;69940;53.120;8.764;2024-03-17T02:33:27;102437.00;;;6.52;78.03
79705;BME280;69940;53.120;8.764;2024-03-17T02:35:58;102438.00;;;6.48;78.14
79705;BME280;69940;53.120;8.764;2024-03-17T02:39:04;102439.00;;;6.44;78.40
79705;BME280;69940;53.120;8.764;2024-03-17T02:40:57;102439.00;;;6.43;78.42
79705;BME280;69940;53.120;8.764;2024-03-17T02:43:28;102437.00;;;6.42;78.35
79705;BME280;69940;53.120;8.764;2024-03-17T02:45:58;102436.00;;;6.41;78.30
79705;BME280;69940;53.120;8.764;2024-03-17T02:48:28;102435.00;;;6.39;78.41
79705;BME280;69940;53.120;8.764;2024-03-17T02:50:58;102435.00;;;6.36;78.45
79705;BME280;69940;53.120;8.764;2024-03-17T02:53:27;102435.00;;;6.33;78.71
79705;BME280;69940;53.120;8.764;2024-03-17T02:55:57;102437.00;;;6.30;78.85
79705;BME280;69940;53.120;8.764;2024-03-17T02:58:28;102438.00;;;6.27;78.75
79705;BME280;69940;53.120;8.764;2024-03-17T03:00:57;102437.00;;;6.25;78.55
79705;BME280;69940;53.120;8.764;2024-03-17T03:03:27;102437.00;;;6.24;78.09
79705;BME280;69940;53.120;8.764;2024-03-17T03:05:59;102437.00;;;6.26;77.57
79705;BME280;69940;53.120;8.764;2024-03-17T03:08:27;102438.00;;;6.26;77.18
79705;BME280;69940;53.120;8.764;2024-03-17T03:10:57;102439.00;;;6.21;77.25
79705;BME280;69940;53.120;8.764;2024-03-17T03:13:27;102439.00;;;6.12;77.65
79705;BME280;69940;53.120;8.764;2024-03-17T03:15:58;102438.00;;;6.01;78.07
79705;BME280;69940;53.120;8.764;2024-03-17T03:18:28;102439.00;;;5.91;78.51
79705;BME280;69940;53.120;8.764;2024-03-17T03:20:58;102439.00;;;5.82;78.57
79705;BME280;69940;53.120;8.764;2024-03-17T03:23:31;102439.00;;;5.75;78.63
79705;BME280;69940;53.120;8.764;2024-03-17T03:25:59;102441.00;;;5.67;78.69
79705;BME280;69940;53.120;8.764;2024-03-17T03:28:28;102443.00;;;5.59;78.72
79705;BME280;69940;53.120;8.764;2024-03-17T03:30:59;102443.00;;;5.52;78.80
79705;BME280;69940;53.120;8.764;2024-03-17T03:33:28;102445.00;;;5.46;78.75
79705;BME280;69940;53.120;8.764;2024-03-17T03:35:57;102448.00;;;5.42;78.80
79705;BME280;69940;53.120;8.764;2024-03-17T03:38:28;102450.00;;;5.45;78.29
79705;BME280;69940;53.120;8.764;2024-03-17T03:40:58;102450.00;;;5.52;77.41
79705;BME280;69940;53.120;8.764;2024-03-17T03:43:29;102449.00;;;5.55;77.14
79705;BME280;69940;53.120;8.764;2024-03-17T03:45:59;102449.00;;;5.57;77.29
79705;BME280;69940;53.120;8.764;2024-03-17T03:48:28;102447.00;;;5.59;76.92
79705;BME280;69940;53.120;8.764;2024-03-17T03:50:58;102446.00;;;5.57;76.94
79705;BME280;69940;53.120;8.764;2024-03-17T03:53:28;102444.00;;;5.57;77.16
79705;BME280;69940;53.120;8.764;2024-03-17T03:55:57;102443.00;;;5.59;76.89
79705;BME280;69940;53.120;8.764;2024-03-17T03:58:28;102440.00;;;5.62;76.57
79705;BME280;69940;53.120;8.764;2024-03-17T04:00:58;102440.00;;;5.61;76.81
79705;BME280;69940;53.120;8.764;2024-03-17T04:03:28;102439.00;;;5.58;77.29
79705;BME280;69940;53.120;8.764;2024-03-17T04:06:07;102439.00;;;5.60;76.97
79705;BME280;69940;53.120;8.764;2024-03-17T04:08:27;102441.00;;;5.64;76.53
79705;BME280;69940;53.120;8.764;2024-03-17T04:10:58;102442.00;;;5.69;75.98
79705;BME280;69940;53.120;8.764;2024-03-17T04:13:28;102442.00;;;5.70;75.87
79705;BME280;69940;53.120;8.764;2024-03-17T04:15:58;102443.00;;;5.63;76.51
79705;BME280;69940;53.120;8.764;2024-03-17T04:18:31;102444.00;;;5.57;77.17
79705;BME280;69940;53.120;8.764;2024-03-17T04:21:01;102445.00;;;5.56;76.90
79705;BME280;69940;53.120;8.764;2024-03-17T04:23:27;102444.00;;;5.60;76.49
79705;BME280;69940;53.120;8.764;2024-03-17T04:25:58;102444.00;;;5.65;76.13
79705;BME280;69940;53.120;8.764;2024-03-17T04:28:27;102444.00;;;5.69;76.24
79705;BME280;69940;53.120;8.764;2024-03-17T04:31:05;102446.00;;;5.71;76.16
79705;BME280;69940;53.120;8.764;2024-03-17T04:33:27;102447.00;;;5.73;76.41
79705;BME280;69940;53.120;8.764;2024-03-17T04:35:57;102448.00;;;5.77;76.12
79705;BME280;69940;53.120;8.764;2024-03-17T04:38:28;102449.00;;;5.80;75.61
79705;BME280;69940;53.120;8.764;2024-03-17T04:41:05;102449.00;;;5.80;76.13
79705;BME280;69940;53.120;8.764;2024-03-17T04:43:27;102450.00;;;5.80;76.44
79705;BME280;69940;53.120;8.764;2024-03-17T04:46:01;102451.00;;;5.81;76.27
79705;BME280;69940;53.120;8.764;2024-03-17T04:48:28;102452.00;;;5.79;76.60
79705;BME280;69940;53.120;8.764;2024-03-17T04:50:58;102454.00;;;5.75;76.93
79705;BME280;69940;53.120;8.764;2024-03-17T04:53:28;102453.00;;;5.72;77.39
79705;BME280;69940;53.120;8.764;2024-03-17T04:56:05;102454.00;;;5.73;77.32
79705;BME280;69940;53.120;8.764;2024-03-17T04:58:27;102455.00;;;5.72;77.26
79705;BME280;69940;53.120;8.764;2024-03-17T05:01:03;102455.00;;;5.71;77.97
79705;BME280;69940;53.120;8.764;2024-03-17T05:03:27;102456.00;;;5.74;77.72
79705;BME280;69940;53.120;8.764;2024-03-17T05:06:02;102457.00;;;5.78;77.15
79705;BME280;69940;53.120;8.764;2024-03-17T05:08:27;102460.00;;;5.79;77.27
79705;BME280;69940;53.120;8.764;2024-03-17T05:10:58;102460.00;;;5.79;77.92
79705;BME280;69940;53.120;8.764;2024-03-17T05:13:28;102460.00;;;5.81;78.11
79705;BME280;69940;53.120;8.764;2024-03-17T05:15:59;102460.00;;;5.83;77.84
79705;BME280;69940;53.120;8.764;2024-03-17T05:18:28;102460.00;;;5.86;78.07
79705;BME280;69940;53.120;8.764;2024-03-17T05:20:59;102463.00;;;5.86;78.03
79705;BME280;69940;53.120;8.764;2024-03-17T05:23:28;102465.00;;;5.87;78.49
79705;BME280;69940;53.120;8.764;2024-03-17T05:25:58;102467.00;;;5.91;78.51
79705;BME280;69940;53.120;8.764;2024-03-17T05:28:28;102466.00;;;5.95;78.45
79705;BME280;69940;53.120;8.764;2024-03-17T05:30:58;102467.00;;;6.00;78.09
79705;BME280;69940;53.120;8.764;2024-03-17T05:33:27;102467.00;;;6.01;78.25
79705;BME280;69940;53.120;8.764;2024-03-17T05:35:59;102468.00;;;6.03;78.22
79705;BME280;69940;53.120;8.764;2024-03-17T05:38:28;102469.00;;;6.05;77.99
79705;BME280;69940;53.120;8.764;2024-03-17T05:40:59;102469.00;;;6.05;77.99
79705;BME280;69940;53.120;8.764;2024-03-17T05:43:29;102467.00;;;6.02;78.25
79705;BME280;69940;53.120;8.764;2024-03-17T05:45:59;102468.00;;;5.96;78.66
79705;BME280;69940;53.120;8.764;2024-03-17T05:48:27;102469.00;;;5.93;78.90
79705;BME280;69940;53.120;8.764;2024-03-17T05:50:57;102470.00;;;5.90;78.95
79705;BME280;69940;53.120;8.764;2024-03-17T05:53:28;102471.00;;;5.90;79.26
79705;BME280;69940;53.120;8.764;2024-03-17T05:56:02;102472.00;;;5.92;79.02
79705;BME280;69940;53.120;8.764;2024-03-17T05:58:28;102473.00;;;5.97;79.08
79705;BME280;69940;53.120;8.764;2024-03-17T06:01:01;102477.00;;;6.02;78.54
79705;BME280;69940;53.120;8.764;2024-03-17T06:03:28;102479.00;;;6.07;78.28
79705;BME280;69940;53.120;8.764;2024-03-17T06:06:00;102481.00;;;6.12;78.17
79705;BME280;69940;53.120;8.764;2024-03-17T06:08:27;102482.00;;;6.13;78.33
79705;BME280;69940;53.120;8.764;2024-03-17T06:11:01;102483.00;;;6.16;78.29
79705;BME280;69940;53.120;8.764;2024-03-17T06:13:29;102485.00;;;6.19;77.97
79705;BME280;69940;53.120;8.764;2024-03-17T06:16:04;102487.00;;;6.18;78.15
79705;BME280;69940;53.120;8.764;2024-03-17T06:18:28;102488.00;;;6.15;78.69
79705;BME280;69940;53.120;8.764;2024-03-17T06:21:00;102490.00;;;6.11;78.99
79705;BME280;69940;53.120;8.764;2024-03-17T06:23:27;102490.00;;;6.09;79.35
79705;BME280;69940;53.120;8.764;2024-03-17T06:25:57;102490.00;;;6.10;79.05
79705;BME280;69940;53.120;8.764;2024-03-17T06:28:27;102490.00;;;6.12;79.12
79705;BME280;69940;53.120;8.764;2024-03-17T06:31:00;102490.00;;;6.16;78.92
79705;BME280;69940;53.120;8.764;2024-03-17T06:33:29;102487.00;;;6.20;78.62
79705;BME280;69940;53.120;8.764;2024-03-17T06:35:57;102484.00;;;6.25;78.36
79705;BME280;69940;53.120;8.764;2024-03-17T06:38:27;102481.00;;;6.28;78.14
79705;BME280;69940;53.120;8.764;2024-03-17T06:40:57;102480.00;;;6.31;77.86
79705;BME280;69940;53.120;8.764;2024-03-17T06:43:27;102480.00;;;6.32;77.52
79705;BME280;69940;53.120;8.764;2024-03-17T06:45:59;102480.00;;;6.31;77.29
79705;BME280;69940;53.120;8.764;2024-03-17T06:48:28;102479.00;;;6.30;77.13
79705;BME280;69940;53.120;8.764;2024-03-17T06:50:58;102480.00;;;6.30;76.97
79705;BME280;69940;53.120;8.764;2024-03-17T06:53:27;102480.00;;;6.28;76.95
79705;BME280;69940;53.120;8.764;2024-03-17T06:55:58;102479.00;;;6.26;77.06
79705;BME280;69940;53.120;8.764;2024-03-17T06:58:29;102480.00;;;6.24;77.07
79705;BME280;69940;53.120;8.764;2024-03-17T07:01:01;102480.00;;;6.23;76.96
79705;BME280;69940;53.120;8.764;2024-03-17T07:03:29;102482.00;;;6.23;77.07
79705;BME280;69940;53.120;8.764;2024-03-17T07:05:59;102482.00;;;6.24;77.16
79705;BME280;69940;53.120;8.764;2024-03-17T07:08:28;102483.00;;;6.24;77.14
79705;BME280;69940;53.120;8.764;2024-03-17T07:11:02;102483.00;;;6.23;77.49
79705;BME280;69940;53.120;8.764;2024-03-17T07:13:29;102484.00;;;6.24;77.66
79705;BME280;69940;53.120;8.764;2024-03-17T07:15:58;102485.00;;;6.28;77.56
79705;BME280;69940;53.120;8.764;2024-03-17T07:18:30;102486.00;;;6.34;77.28
79705;BME280;69940;53.120;8.764;2024-03-17T07:21:02;102487.00;;;6.39;77.18
79705;BME280;69940;53.120;8.764;2024-03-17T07:23:27;102489.00;;;6.44;77.40
79705;BME280;69940;53.120;8.764;2024-03-17T07:26:00;102490.00;;;6.50;77.60
79705;BME280;69940;53.120;8.764;2024-03-17T07:28:27;102491.00;;;6.54;77.71
79705;BME280;69940;53.120;8.764;2024-03-17T07:30:58;102492.00;;;6.58;78.01
79705;BME280;69940;53.120;8.764;2024-03-17T07:33:27;102493.00;;;6.63;78.02
79705;BME280;69940;53.120;8.764;2024-03-17T07:35:58;102494.00;;;6.68;78.19
79705;BME280;69940;53.120;8.764;2024-03-17T07:38:29;102495.00;;;6.73;78.23
79705;BME280;69940;53.120;8.764;2024-03-17T07:40:59;102495.00;;;6.79;78.31
79705;BME280;69940;53.120;8.764;2024-03-17T07:43:29;102496.00;;;6.83;78.24
79705;BME280;69940;53.120;8.764;2024-03-17T07:45:58;102498.00;;;6.86;78.44
79705;BME280;69940;53.120;8.764;2024-03-17T07:48:28;102500.00;;;6.90;78.67
79705;BME280;69940;53.120;8.764;2024-03-17T07:50:59;102503.00;;;6.95;78.51
79705;BME280;69940;53.120;8.764;2024-03-17T07:53:27;102504.00;;;7.03;78.40
79705;BME280;69940;53.120;8.764;2024-03-17T07:56:02;102506.00;;;7.12;78.19
79705;BME280;69940;53.120;8.764;2024-03-17T07:58:28;102506.00;;;7.21;78.08
79705;BME280;69940;53.120;8.764;2024-03-17T08:00:58;102506.00;;;7.30;78.23
79705;BME280;69940;53.120;8.764;2024-03-17T08:03:28;102506.00;;;7.40;78.06
79705;BME280;69940;53.120;8.764;2024-03-17T08:05:58;102508.00;;;7.50;77.84
79705;BME280;69940;53.120;8.764;2024-03-17T08:08:28;102510.00;;;7.59;77.82
79705;BME280;69940;53.120;8.764;2024-03-17T08:10:58;102512.00;;;7.67;77.63
79705;BME280;69940;53.120;8.764;2024-03-17T08:13:34;102514.00;;;7.73;77.63
79705;BME280;69940;53.120;8.764;2024-03-17T08:15:59;102514.00;;;7.80;77.55
79705;BME280;69940;53.120;8.764;2024-03-17T08:18:31;102513.00;;;7.86;77.57
79705;BME280;69940;53.120;8.764;2024-03-17T08:21:00;102513.00;;;7.93;77.53
79705;BME280;69940;53.120;8.764;2024-03-17T08:23:27;102514.00;;;8.00;77.35
79705;BME280;69940;53.120;8.764;2024-03-17T08:25:59;102514.00;;;8.08;77.04
79705;BME280;69940;53.120;8.764;2024-03-17T08:28:28;102513.00;;;8.16;76.77
79705;BME280;69940;53.120;8.764;2024-03-17T08:30:58;102512.00;;;8.24;76.62
79705;BME280;69940;53.120;8.764;2024-03-17T08:33:28;102511.00;;;8.35;76.56
79705;BME280;69940;53.120;8.764;2024-03-17T08:35:59;102510.00;;;8.47;76.07
79705;BME280;69940;53.120;8.764;2024-03-17T08:38:30;102509.00;;;8.59;75.52
79705;BME280;69940;53.120;8.764;2024-03-17T08:41:01;102508.00;;;8.71;75.24
79705;BME280;69940;53.120;8.764;2024-03-17T08:43:27;102506.00;;;8.82;74.91
79705;BME280;69940;53.120;8.764;2024-03-17T08:46:06;102504.00;;;8.94;74.53
79705;BME280;69940;53.120;8.764;2024-03-17T08:48:28;102502.00;;;9.04;74.21
79705;BME280;69940;53.120;8.764;2024-03-17T08:51:01;102499.00;;;9.13;74.12
79705;BME280;69940;53.120;8.764;2024-03-17T08:53:28;102497.00;;;9.20;74.00
79705;BME280;69940;53.120;8.764;2024-03-17T08:55:58;102496.00;;;9.24;73.48
79705;BME280;69940;53.120;8.764;2024-03-17T08:58:27;102495.00;;;9.29;73.28
79705;BME280;69940;53.120;8.764;2024-03-17T09:00:58;102496.00;;;9.34;73.07
79705;BME280;69940;53.120;8.764;2024-03-17T09:03:27;102496.00;;;9.38;72.84
79705;BME280;69940;53.120;8.764;2024-03-17T09:05:57;102494.00;;;9.44;72.43
79705;BME280;69940;53.120;8.764;2024-03-17T09:08:29;102493.00;;;9.50;72.29
79705;BME280;69940;53.120;8.764;2024-03-17T09:10:57;102491.00;;;9.55;72.29
79705;BME280;69940;53.120;8.764;2024-03-17T09:13:27;102489.00;;;9.60;71.64
79705;BME280;69940;53.120;8.764;2024-03-17T09:15:58;102486.00;;;9.67;70.78
79705;BME280;69940;53.120;8.764;2024-03-17T09:18:33;102483.00;;;9.74;69.72
79705;BME280;69940;53.120;8.764;2024-03-17T09:20:59;102481.00;;;9.78;69.56
79705;BME280;69940;53.120;8.764;2024-03-17T09:23:29;102481.00;;;9.81;69.81
79705;BME280;69940;53.120;8.764;2024-03-17T09:26:02;102481.00;;;9.82;69.73
79705;BME280;69940;53.120;8.764;2024-03-17T09:28:31;102483.00;;;9.83;69.98
79705;BME280;69940;53.120;8.764;2024-03-17T09:30:58;102484.00;;;9.84;69.89
79705;BME280;69940;53.120;8.764;2024-03-17T09:33:29;102486.00;;;9.86;69.39
79705;BME280;69940;53.120;8.764;2024-03-17T09:35:59;102488.00;;;9.87;68.66
79705;BME280;69940;53.120;8.764;2024-03-17T09:38:29;102489.00;;;9.89;69.02
79705;BME280;69940;53.120;8.764;2024-03-17T09:41:03;102490.00;;;9.93;68.46
79705;BME280;69940;53.120;8.764;2024-03-17T09:43:35;102490.00;;;9.97;68.29
79705;BME280;69940;53.120;8.764;2024-03-17T09:46:04;102491.00;;;10.02;68.26
79705;BME280;69940;53.120;8.764;2024-03-17T09:48:30;102491.00;;;10.08;67.88
79705;BME280;69940;53.120;8.764;2024-03-17T09:50:59;102491.00;;;10.12;67.95
79705;BME280;69940;53.120;8.764;2024-03-17T09:53:29;102490.00;;;10.15;67.78
79705;BME280;69940;53.120;8.764;2024-03-17T09:56:12;102491.00;;;10.18;67.80
79705;BME280;69940;53.120;8.764;2024-03-17T09:58:28;102491.00;;;10.22;67.75
79705;BME280;69940;53.120;8.764;2024-03-17T10:00:57;102491.00;;;10.26;67.16
79705;BME280;69940;53.120;8.764;2024-03-17T10:03:51;102492.00;;;10.31;66.99
79705;BME280;69940;53.120;8.764;2024-03-17T10:06:00;102493.00;;;10.36;66.61
79705;BME280;69940;53.120;8.764;2024-03-17T10:08:27;102493.00;;;10.40;66.30
79705;BME280;69940;53.120;8.764;2024-03-17T10:10:58;102493.00;;;10.43;66.74
79705;BME280;69940;53.120;8.764;2024-03-17T10:13:27;102492.00;;;10.46;66.52
79705;BME280;69940;53.120;8.764;2024-03-17T10:15:57;102492.00;;;10.49;66.36
79705;BME280;69940;53.120;8.764;2024-03-17T10:18:27;102490.00;;;10.51;66.15
79705;BME280;69940;53.120;8.764;2024-03-17T10:20:59;102490.00;;;10.52;65.93
79705;BME280;69940;53.120;8.764;2024-03-17T10:23:29;102490.00;;;10.51;66.08
79705;BME280;69940;53.120;8.764;2024-03-17T10:25:58;102490.00;;;10.50;65.99
79705;BME280;69940;53.120;8.764;2024-03-17T10:28:28;102490.00;;;10.49;65.90
79705;BME280;69940;53.120;8.764;2024-03-17T10:30:59;102490.00;;;10.49;66.03
79705;BME280;69940;53.120;8.764;2024-03-17T10:33:27;102490.00;;;10.52;65.31
79705;BME280;69940;53.120;8.764;2024-03-17T10:35:58;102488.00;;;10.59;64.73
79705;BME280;69940;53.120;8.764;2024-03-17T10:38:29;102487.00;;;10.67;64.29
79705;BME280;69940;53.120;8.764;2024-03-17T10:40:58;102484.00;;;10.75;64.72
79705;BME280;69940;53.120;8.764;2024-03-17T10:43:28;102482.00;;;10.82;64.17
79705;BME280;69940;53.120;8.764;2024-03-17T10:45:59;102480.00;;;10.88;63.65
79705;BME280;69940;53.120;8.764;2024-03-17T10:48:31;102479.00;;;10.95;63.48
79705;BME280;69940;53.120;8.764;2024-03-17T10:50:59;102475.00;;;10.99;62.96
79705;BME280;69940;53.120;8.764;2024-03-17T10:53:30;102472.00;;;11.01;63.18
79705;BME280;69940;53.120;8.764;2024-03-17T10:56:04;102472.00;;;11.02;63.26
79705;BME280;69940;53.120;8.764;2024-03-17T10:58:35;102471.00;;;11.03;63.37
79705;BME280;69940;53.120;8.764;2024-03-17T11:00:58;102470.00;;;11.03;63.45
79705;BME280;69940;53.120;8.764;2024-03-17T11:03:27;102466.00;;;11.02;63.59
79705;BME280;69940;53.120;8.764;2024-03-17T11:05:59;102463.00;;;10.99;63.26
79705;BME280;69940;53.120;8.764;2024-03-17T11:08:27;102461.00;;;10.96;63.50
79705;BME280;69940;53.120;8.764;2024-03-17T11:10:58;102459.00;;;10.94;63.13
79705;BME280;69940;53.120;8.764;2024-03-17T11:13:29;102457.00;;;10.91;62.15
79705;BME280;69940;53.120;8.764;2024-03-17T11:15:59;102454.00;;;10.90;62.84
79705;BME280;69940;53.120;8.764;2024-03-17T11:18:29;102452.00;;;10.90;63.04
79705;BME280;69940;53.120;8.764;2024-03-17T11:21:02;102449.00;;;10.92;62.62
79705;BME280;69940;53.120;8.764;2024-03-17T11:23:29;102448.00;;;10.96;62.09
79705;BME280;69940;53.120;8.764;2024-03-17T11:25:58;102446.00;;;11.00;61.91
79705;BME280;69940;53.120;8.764;2024-03-17T11:28:46;102444.00;;;11.05;62.35
79705;BME280;69940;53.120;8.764;2024-03-17T11:31:40;102442.00;;;11.09;62.60
79705;BME280;69940;53.120;8.764;2024-03-17T11:39:07;102442.00;;;11.24;61.55
79705;BME280;69940;53.120;8.764;2024-03-17T11:43:28;102440.00;;;11.33;61.54
79705;BME280;69940;53.120;8.764;2024-03-17T11:45:57;102440.00;;;11.39;61.51
79705;BME280;69940;53.120;8.764;2024-03-17T11:48:28;102440.00;;;11.45;60.99
79705;BME280;69940;53.120;8.764;2024-03-17T11:50:58;102441.00;;;11.51;60.52
79705;BME280;69940;53.120;8.764;2024-03-17T11:53:30;102442.00;;;11.57;60.74
79705;BME280;69940;53.120;8.764;2024-03-17T11:55:58;102443.00;;;11.61;60.68
79705;BME280;69940;53.120;8.764;2024-03-17T11:58:27;102445.00;;;11.66;60.53
79705;BME280;69940;53.120;8.764;2024-03-17T12:00:58;102445.00;;;11.70;59.96
79705;BME280;69940;53.120;8.764;2024-03-17T12:03:27;102444.00;;;11.74;60.40
79705;BME280;69940;53.120;8.764;2024-03-17T12:05:57;102442.00;;;11.78;60.32
79705;BME280;69940;53.120;8.764;2024-03-17T12:08:27;102440.00;;;11.82;60.11
79705;BME280;69940;53.120;8.764;2024-03-17T12:10:57;102436.00;;;11.86;60.02
79705;BME280;69940;53.120;8.764;2024-03-17T12:13:34;102432.00;;;11.89;60.18
79705;BME280;69940;53.120;8.764;2024-03-17T12:16:10;102428.00;;;11.95;60.48
79705;BME280;69940;53.120;8.764;2024-03-17T12:18:34;102425.00;;;12.01;60.46
79705;BME280;69940;53.120;8.764;2024-03-17T12:20:59;102422.00;;;12.07;59.72
79705;BME280;69940;53.120;8.764;2024-03-17T12:23:27;102420.00;;;12.13;59.39
79705;BME280;69940;53.120;8.764;2024-03-17T12:25:58;102417.00;;;12.19;58.73
79705;BME280;69940;53.120;8.764;2024-03-17T12:28:28;102415.00;;;12.23;58.87
79705;BME280;69940;53.120;8.764;2024-03-17T12:31:00;102414.00;;;12.25;58.81
79705;BME280;69940;53.120;8.764;2024-03-17T12:33:27;102414.00;;;12.28;58.62
79705;BME280;69940;53.120;8.764;2024-03-17T12:36:07;102412.00;;;12.30;58.66
79705;BME280;69940;53.120;8.764;2024-03-17T12:38:28;102411.00;;;12.34;58.84
79705;BME280;69940;53.120;8.764;2024-03-17T12:40:57;102408.00;;;12.38;59.37
79705;BME280;69940;53.120;8.764;2024-03-17T12:43:28;102407.00;;;12.41;58.03
79705;BME280;69940;53.120;8.764;2024-03-17T12:45:57;102403.00;;;12.43;58.07
79705;BME280;69940;53.120;8.764;2024-03-17T12:48:27;102401.00;;;12.44;58.16
79705;BME280;69940;53.120;8.764;2024-03-17T12:50:58;102399.00;;;12.44;58.36
79705;BME280;69940;53.120;8.764;2024-03-17T12:53:28;102399.00;;;12.42;58.44
79705;BME280;69940;53.120;8.764;2024-03-17T12:56:34;102398.00;;;12.38;58.29
79705;BME280;69940;53.120;8.764;2024-03-17T12:59:09;102395.00;;;12.35;58.09
79705;BME280;69940;53.120;8.764;2024-03-17T13:01:03;102393.00;;;12.33;58.49
79705;BME280;69940;53.120;8.764;2024-03-17T13:03:30;102391.00;;;12.31;57.88
79705;BME280;69940;53.120;8.764;2024-03-17T13:05:57;102389.00;;;12.29;58.01
79705;BME280;69940;53.120;8.764;2024-03-17T13:08:27;102388.00;;;12.27;58.13
79705;BME280;69940;53.120;8.764;2024-03-17T13:10:58;102386.00;;;12.27;57.67
79705;BME280;69940;53.120;8.764;2024-03-17T13:13:27;102384.00;;;12.28;57.27
79705;BME280;69940;53.120;8.764;2024-03-17T13:15:57;102380.00;;;12.30;57.75
79705;BME280;69940;53.120;8.764;2024-03-17T13:18:27;102377.00;;;12.34;57.55